createdAt,value
2024-05-09T00:00:29.767Z,41.64
2024-05-09T00:01:03.126Z,41.29
2024-05-09T00:01:34.721Z,41.64
2024-05-09T00:02:06.295Z,41.72
2024-05-09T00:02:37.950Z,41.43
2024-05-09T00:03:10.979Z,41.51
2024-05-09T00:03:43.798Z,41.46
2024-05-09T00:04:15.509Z,41.38
2024-05-09T00:04:47.239Z,41.60
2024-05-09T00:05:19.054Z,41.60
2024-05-09T00:05:51.000Z,41.51
2024-05-09T00:06:22.609Z,41.68
2024-05-09T00:06:54.196Z,41.69
2024-05-09T00:07:25.813Z,41.59
2024-05-09T00:07:57.427Z,41.24
2024-05-09T00:08:29.164Z,41.30
2024-05-09T00:09:00.809Z,41.43
2024-05-09T00:09:32.381Z,41.23
2024-05-09T00:10:05.622Z,41.23
2024-05-09T00:10:40.072Z,41.43
2024-05-09T00:11:12.666Z,41.58
2024-05-09T00:11:44.450Z,41.51
2024-05-09T00:12:16.139Z,41.34
2024-05-09T00:12:47.786Z,41.16
2024-05-09T00:13:19.373Z,41.26
2024-05-09T00:13:51.078Z,41.65
2024-05-09T00:14:22.865Z,41.56
2024-05-09T00:14:54.465Z,41.30
2024-05-09T00:15:26.051Z,41.47
2024-05-09T00:15:57.604Z,41.61
2024-05-09T00:16:29.211Z,41.44
2024-05-09T00:17:00.850Z,41.62
2024-05-09T00:17:32.573Z,41.76
2024-05-09T00:18:04.780Z,41.50
2024-05-09T00:18:37.174Z,41.21
2024-05-09T00:19:09.100Z,41.53
2024-05-09T00:19:43.828Z,41.52
2024-05-09T00:20:20.516Z,41.60
2024-05-09T00:20:56.292Z,41.30
2024-05-09T00:21:27.881Z,41.59
2024-05-09T00:21:59.477Z,41.48
2024-05-09T00:22:31.045Z,41.39
2024-05-09T00:23:02.687Z,41.41
2024-05-09T00:23:34.420Z,41.23
2024-05-09T00:24:06.190Z,41.53
2024-05-09T00:24:37.790Z,41.60
2024-05-09T00:25:09.416Z,41.22
2024-05-09T00:25:41.062Z,41.49
2024-05-09T00:26:12.718Z,41.13
2024-05-09T00:26:44.267Z,41.23
2024-05-09T00:27:15.814Z,41.50
2024-05-09T00:27:47.412Z,41.67
2024-05-09T00:28:18.980Z,41.29
2024-05-09T00:28:50.544Z,41.59
2024-05-09T00:29:22.329Z,41.18
2024-05-09T00:29:53.920Z,41.38
2024-05-09T00:30:33.223Z,41.61
2024-05-09T00:31:07.409Z,41.36
2024-05-09T00:31:39.010Z,41.37
2024-05-09T00:32:10.677Z,41.52
2024-05-09T00:32:42.487Z,41.14
2024-05-09T00:33:14.447Z,41.45
2024-05-09T00:33:46.335Z,41.34
2024-05-09T00:34:18.108Z,41.25
2024-05-09T00:34:49.878Z,41.23
2024-05-09T00:35:21.636Z,41.36
2024-05-09T00:35:53.297Z,41.69
2024-05-09T00:36:24.895Z,41.51
2024-05-09T00:36:56.520Z,41.60
2024-05-09T00:37:28.202Z,41.58
2024-05-09T00:38:00.105Z,41.40
2024-05-09T00:38:31.999Z,41.31
2024-05-09T00:39:03.642Z,41.59
2024-05-09T00:39:35.232Z,41.32
2024-05-09T00:40:09.572Z,41.53
2024-05-09T00:40:43.945Z,41.44
2024-05-09T00:41:18.910Z,41.55
2024-05-09T00:41:51.150Z,41.47
2024-05-09T00:42:22.770Z,41.12
2024-05-09T00:42:54.375Z,41.56
2024-05-09T00:43:25.915Z,41.28
2024-05-09T00:43:57.533Z,41.33
2024-05-09T00:44:29.235Z,41.53
2024-05-09T00:45:00.899Z,41.43
2024-05-09T00:45:35.519Z,41.26
2024-05-09T00:46:07.066Z,41.31
2024-05-09T00:46:41.243Z,41.60
2024-05-09T00:47:13.000Z,41.38
2024-05-09T00:47:44.813Z,41.46
2024-05-09T00:48:19.638Z,41.34
2024-05-09T00:48:52.963Z,41.50
2024-05-09T00:49:24.741Z,41.44
2024-05-09T00:49:56.477Z,41.07
2024-05-09T00:50:35.580Z,41.11
2024-05-09T00:51:08.885Z,41.10
2024-05-09T00:51:40.469Z,41.12
2024-05-09T00:52:12.130Z,41.19
2024-05-09T00:52:43.804Z,41.08
2024-05-09T00:53:15.912Z,41.25
2024-05-09T00:53:47.730Z,41.42
2024-05-09T00:54:19.307Z,41.51
2024-05-09T00:54:50.874Z,41.45
2024-05-09T00:55:22.514Z,41.08
2024-05-09T00:55:54.107Z,41.32
2024-05-09T00:56:25.780Z,41.52
2024-05-09T00:56:57.358Z,41.36
2024-05-09T00:57:28.923Z,41.27
2024-05-09T00:58:00.518Z,41.19
2024-05-09T00:58:32.141Z,41.47
2024-05-09T00:59:03.877Z,41.18
2024-05-09T00:59:35.583Z,41.28
2024-05-09T01:00:12.172Z,41.12
2024-05-09T01:00:50.146Z,41.46
2024-05-09T01:01:21.797Z,41.01
2024-05-09T01:01:53.554Z,41.16
2024-05-09T01:02:25.249Z,41.17
2024-05-09T01:02:56.963Z,41.18
2024-05-09T01:03:28.694Z,41.11
2024-05-09T01:04:00.456Z,41.45
2024-05-09T01:04:32.190Z,41.42
2024-05-09T01:05:03.920Z,41.14
2024-05-09T01:05:35.873Z,41.34
2024-05-09T01:06:07.504Z,41.38
2024-05-09T01:06:39.073Z,41.13
2024-05-09T01:07:10.624Z,41.01
2024-05-09T01:07:42.371Z,41.10
2024-05-09T01:08:14.028Z,41.25
2024-05-09T01:08:45.669Z,41.17
2024-05-09T01:09:17.227Z,41.51
2024-05-09T01:09:48.787Z,41.14
2024-05-09T01:10:27.714Z,41.44
2024-05-09T01:11:03.941Z,41.05
2024-05-09T01:11:35.703Z,41.17
2024-05-09T01:12:07.521Z,41.44
2024-05-09T01:12:39.286Z,41.34
2024-05-09T01:13:10.901Z,40.97
2024-05-09T01:13:42.635Z,41.23
2024-05-09T01:14:14.237Z,41.10
2024-05-09T01:14:45.857Z,41.38
2024-05-09T01:15:17.483Z,41.44
2024-05-09T01:15:49.219Z,41.29
2024-05-09T01:16:20.798Z,41.08
2024-05-09T01:16:52.478Z,41.35
2024-05-09T01:17:24.188Z,41.17
2024-05-09T01:17:56.296Z,41.08
2024-05-09T01:18:28.296Z,41.19
2024-05-09T01:18:59.977Z,41.05
2024-05-09T01:19:31.836Z,41.16
2024-05-09T01:20:05.950Z,41.34
2024-05-09T01:20:42.276Z,40.98
2024-05-09T01:21:16.179Z,41.29
2024-05-09T01:21:47.889Z,41.16
2024-05-09T01:22:19.455Z,41.33
2024-05-09T01:22:51.109Z,41.02
2024-05-09T01:23:22.772Z,41.07
2024-05-09T01:23:54.368Z,41.38
2024-05-09T01:24:26.046Z,41.01
2024-05-09T01:24:57.631Z,40.99
2024-05-09T01:25:29.207Z,40.93
2024-05-09T01:26:00.921Z,41.39
2024-05-09T01:26:32.655Z,41.32
2024-05-09T01:27:04.248Z,41.19
2024-05-09T01:27:35.888Z,40.84
2024-05-09T01:28:07.559Z,41.28
2024-05-09T01:28:39.253Z,41.21
2024-05-09T01:29:10.880Z,40.95
2024-05-09T01:29:42.455Z,41.01
2024-05-09T01:30:17.445Z,41.01
2024-05-09T01:30:52.944Z,41.06
2024-05-09T01:31:24.519Z,41.06
2024-05-09T01:31:56.239Z,41.11
2024-05-09T01:32:28.022Z,41.19
2024-05-09T01:32:59.889Z,40.87
2024-05-09T01:33:31.989Z,40.84
2024-05-09T01:34:03.952Z,41.12
2024-05-09T01:34:35.514Z,41.35
2024-05-09T01:35:07.476Z,40.90
2024-05-09T01:35:39.503Z,41.12
2024-05-09T01:36:11.222Z,40.80
2024-05-09T01:36:42.886Z,41.03
2024-05-09T01:37:14.468Z,40.96
2024-05-09T01:37:46.059Z,41.20
2024-05-09T01:38:17.850Z,41.06
2024-05-09T01:38:49.525Z,41.13
2024-05-09T01:39:24.110Z,41.10
2024-05-09T01:39:55.655Z,41.31
2024-05-09T01:40:36.349Z,41.12
2024-05-09T01:41:10.864Z,41.32
2024-05-09T01:41:42.550Z,41.31
2024-05-09T01:42:14.280Z,41.09
2024-05-09T01:42:45.919Z,40.90
2024-05-09T01:43:17.549Z,41.14
2024-05-09T01:43:49.125Z,41.22
2024-05-09T01:44:20.829Z,41.17
2024-05-09T01:44:52.445Z,40.76
2024-05-09T01:45:23.992Z,40.89
2024-05-09T01:45:57.938Z,41.03
2024-05-09T01:46:29.598Z,40.95
2024-05-09T01:47:01.260Z,41.03
2024-05-09T01:47:33.245Z,40.79
2024-05-09T01:48:05.198Z,41.10
2024-05-09T01:48:37.020Z,40.90
2024-05-09T01:49:08.752Z,41.17
2024-05-09T01:49:40.426Z,40.84
2024-05-09T01:50:16.323Z,40.89
2024-05-09T01:50:48.222Z,41.18
2024-05-09T01:51:19.911Z,40.69
2024-05-09T01:51:51.503Z,40.72
2024-05-09T01:52:23.136Z,41.21
2024-05-09T01:52:54.774Z,40.79
2024-05-09T01:53:26.413Z,40.89
2024-05-09T01:53:58.078Z,41.15
2024-05-09T01:54:29.677Z,40.97
2024-05-09T01:55:04.664Z,40.77
2024-05-09T01:55:38.020Z,40.92
2024-05-09T01:56:09.681Z,40.89
2024-05-09T01:56:41.456Z,40.76
2024-05-09T01:57:13.136Z,40.87
2024-05-09T01:57:44.825Z,40.96
2024-05-09T01:58:17.739Z,40.65
2024-05-09T01:58:49.393Z,40.82
2024-05-09T01:59:21.126Z,40.92
2024-05-09T01:59:52.711Z,40.84
2024-05-09T02:00:33.883Z,40.74
2024-05-09T02:01:10.755Z,40.69
2024-05-09T02:01:56.141Z,40.62
2024-05-09T02:02:29.413Z,40.99
2024-05-09T02:03:01.305Z,40.74
2024-05-09T02:03:33.263Z,40.77
2024-05-09T02:04:05.063Z,40.78
2024-05-09T02:04:36.899Z,40.93
2024-05-09T02:05:08.731Z,40.78
2024-05-09T02:05:40.471Z,40.69
2024-05-09T02:06:12.223Z,40.83
2024-05-09T02:06:43.849Z,40.90
2024-05-09T02:07:15.489Z,40.90
2024-05-09T02:07:47.164Z,41.13
2024-05-09T02:08:19.380Z,41.14
2024-05-09T02:08:51.253Z,41.01
2024-05-09T02:09:22.961Z,40.98
2024-05-09T02:09:54.549Z,40.77
2024-05-09T02:10:31.976Z,40.81
2024-05-09T02:11:04.837Z,41.04
2024-05-09T02:11:36.710Z,40.92
2024-05-09T02:12:08.608Z,40.84
2024-05-09T02:12:40.352Z,41.17
2024-05-09T02:13:11.921Z,40.88
2024-05-09T02:13:43.628Z,40.78
2024-05-09T02:14:15.345Z,40.73
2024-05-09T02:14:46.971Z,41.10
2024-05-09T02:15:18.554Z,40.66
2024-05-09T02:15:50.128Z,41.06
2024-05-09T02:16:21.738Z,41.13
2024-05-09T02:16:53.351Z,40.98
2024-05-09T02:17:25.137Z,40.94
2024-05-09T02:17:57.111Z,40.76
2024-05-09T02:18:28.965Z,40.82
2024-05-09T02:19:00.745Z,40.85
2024-05-09T02:19:32.502Z,40.80
2024-05-09T02:20:05.967Z,40.76
2024-05-09T02:20:37.924Z,41.04
2024-05-09T02:21:09.635Z,41.09
2024-05-09T02:21:41.247Z,41.06
2024-05-09T02:22:12.875Z,40.67
2024-05-09T02:22:44.470Z,40.77
2024-05-09T02:23:16.068Z,40.60
2024-05-09T02:23:47.691Z,41.04
2024-05-09T02:24:19.269Z,40.63
2024-05-09T02:24:50.827Z,40.80
2024-05-09T02:25:22.477Z,40.63
2024-05-09T02:25:54.088Z,40.72
2024-05-09T02:26:25.803Z,40.74
2024-05-09T02:26:57.436Z,40.80
2024-05-09T02:27:30.051Z,40.93
2024-05-09T02:28:01.650Z,40.89
2024-05-09T02:28:33.255Z,41.05
2024-05-09T02:29:04.906Z,40.69
2024-05-09T02:29:36.631Z,40.65
2024-05-09T02:30:18.275Z,41.07
2024-05-09T02:30:54.604Z,41.08
2024-05-09T02:31:26.176Z,41.00
2024-05-09T02:31:57.867Z,40.70
2024-05-09T02:32:29.664Z,41.08
2024-05-09T02:33:01.558Z,40.89
2024-05-09T02:33:33.595Z,41.07
2024-05-09T02:34:05.595Z,40.79
2024-05-09T02:34:37.327Z,40.93
2024-05-09T02:35:08.999Z,40.96
2024-05-09T02:35:40.692Z,40.90
2024-05-09T02:36:12.304Z,40.91
2024-05-09T02:36:43.902Z,40.53
2024-05-09T02:37:15.549Z,40.77
2024-05-09T02:37:47.167Z,40.54
2024-05-09T02:38:18.813Z,40.77
2024-05-09T02:38:50.349Z,40.71
2024-05-09T02:39:21.906Z,40.94
2024-05-09T02:39:53.541Z,40.81
2024-05-09T02:40:33.307Z,40.89
2024-05-09T02:41:08.744Z,40.65
2024-05-09T02:41:40.334Z,40.91
2024-05-09T02:42:11.966Z,40.80
2024-05-09T02:42:43.605Z,40.53
2024-05-09T02:43:15.176Z,40.87
2024-05-09T02:43:46.923Z,41.01
2024-05-09T02:44:18.727Z,40.97
2024-05-09T02:44:50.323Z,40.91
2024-05-09T02:45:21.893Z,40.52
2024-05-09T02:45:53.456Z,41.02
2024-05-09T02:46:25.039Z,40.62
2024-05-09T02:46:56.637Z,40.72
2024-05-09T02:47:28.340Z,40.99
2024-05-09T02:48:00.422Z,40.69
2024-05-09T02:48:32.580Z,40.91
2024-05-09T02:49:04.330Z,41.01
2024-05-09T02:49:36.262Z,40.69
2024-05-09T02:50:08.371Z,40.88
2024-05-09T02:50:40.442Z,40.74
2024-05-09T02:51:12.366Z,40.89
2024-05-09T02:51:43.944Z,40.50
2024-05-09T02:52:15.527Z,40.70
2024-05-09T02:52:47.142Z,40.43
2024-05-09T02:53:18.865Z,40.75
2024-05-09T02:53:50.600Z,40.44
2024-05-09T02:54:22.216Z,40.59
2024-05-09T02:54:53.787Z,40.44
2024-05-09T02:55:25.390Z,40.45
2024-05-09T02:55:57.003Z,40.59
2024-05-09T02:56:28.705Z,40.68
2024-05-09T02:57:00.355Z,40.92
2024-05-09T02:57:31.932Z,40.63
2024-05-09T02:58:03.529Z,40.79
2024-05-09T02:58:35.121Z,40.71
2024-05-09T02:59:06.699Z,40.55
2024-05-09T02:59:38.344Z,40.81
2024-05-09T03:00:18.406Z,40.82
2024-05-09T03:00:54.118Z,40.78
2024-05-09T03:01:25.930Z,40.89
2024-05-09T03:01:57.641Z,40.75
2024-05-09T03:02:29.369Z,40.69
2024-05-09T03:03:01.414Z,40.43
2024-05-09T03:03:33.494Z,40.71
2024-05-09T03:04:05.429Z,40.81
2024-05-09T03:04:37.293Z,40.74
2024-05-09T03:05:09.064Z,40.67
2024-05-09T03:05:40.925Z,40.92
2024-05-09T03:06:12.668Z,40.44
2024-05-09T03:06:44.251Z,40.86
2024-05-09T03:07:17.182Z,40.88
2024-05-09T03:07:49.973Z,40.70
2024-05-09T03:08:21.611Z,40.41
2024-05-09T03:08:53.282Z,40.53
2024-05-09T03:09:27.110Z,40.54
2024-05-09T03:09:58.659Z,40.46
2024-05-09T03:10:35.667Z,40.73
2024-05-09T03:11:09.489Z,40.53
2024-05-09T03:11:41.197Z,40.69
2024-05-09T03:12:12.988Z,40.36
2024-05-09T03:12:44.918Z,40.43
2024-05-09T03:13:16.674Z,40.41
2024-05-09T03:13:48.389Z,40.39
2024-05-09T03:14:20.060Z,40.70
2024-05-09T03:14:51.745Z,40.61
2024-05-09T03:15:23.255Z,40.46
2024-05-09T03:15:54.903Z,40.44
2024-05-09T03:16:26.551Z,40.71
2024-05-09T03:16:58.256Z,40.70
2024-05-09T03:17:30.035Z,40.62
2024-05-09T03:18:02.000Z,40.63
2024-05-09T03:18:36.601Z,40.75
2024-05-09T03:19:08.332Z,40.64
2024-05-09T03:19:39.979Z,40.38
2024-05-09T03:20:17.378Z,40.38
2024-05-09T03:20:55.113Z,40.59
2024-05-09T03:21:26.715Z,40.33
2024-05-09T03:21:58.356Z,40.34
2024-05-09T03:22:29.948Z,40.76
2024-05-09T03:23:01.718Z,40.33
2024-05-09T03:23:33.433Z,40.37
2024-05-09T03:24:05.032Z,40.42
2024-05-09T03:24:36.615Z,40.71
2024-05-09T03:25:08.242Z,40.46
2024-05-09T03:25:39.847Z,40.48
2024-05-09T03:26:11.464Z,40.33
2024-05-09T03:26:43.038Z,40.73
2024-05-09T03:27:14.596Z,40.54
2024-05-09T03:27:46.191Z,40.43
2024-05-09T03:28:17.763Z,40.71
2024-05-09T03:28:49.382Z,40.52
2024-05-09T03:29:21.004Z,40.46
2024-05-09T03:29:52.642Z,40.57
2024-05-09T03:30:31.164Z,40.73
2024-05-09T03:31:11.352Z,40.32
2024-05-09T03:31:42.990Z,40.40
2024-05-09T03:32:14.664Z,40.57
2024-05-09T03:32:46.404Z,40.50
2024-05-09T03:33:19.941Z,40.27
2024-05-09T03:33:52.500Z,40.43
2024-05-09T03:34:24.255Z,40.56
2024-05-09T03:34:55.910Z,40.62
2024-05-09T03:35:27.664Z,40.54
2024-05-09T03:36:02.387Z,40.69
2024-05-09T03:36:33.981Z,40.23
2024-05-09T03:37:05.604Z,40.33
2024-05-09T03:37:37.178Z,40.45
2024-05-09T03:38:08.981Z,40.62
2024-05-09T03:38:40.841Z,40.42
2024-05-09T03:39:12.473Z,40.33
2024-05-09T03:39:44.051Z,40.27
2024-05-09T03:40:20.888Z,40.69
2024-05-09T03:40:56.263Z,40.48
2024-05-09T03:41:28.014Z,40.38
2024-05-09T03:41:59.575Z,40.54
2024-05-09T03:42:31.127Z,40.70
2024-05-09T03:43:02.694Z,40.26
2024-05-09T03:43:34.255Z,40.34
2024-05-09T03:44:05.898Z,40.31
2024-05-09T03:44:37.626Z,40.31
2024-05-09T03:45:09.332Z,40.36
2024-05-09T03:45:40.924Z,40.63
2024-05-09T03:46:12.481Z,40.57
2024-05-09T03:46:44.171Z,40.44
2024-05-09T03:47:15.859Z,40.36
2024-05-09T03:47:47.668Z,40.41
2024-05-09T03:48:19.517Z,40.63
2024-05-09T03:48:51.424Z,40.18
2024-05-09T03:49:23.158Z,40.21
2024-05-09T03:49:54.882Z,40.58
2024-05-09T03:50:33.608Z,40.59
2024-05-09T03:51:07.590Z,40.59
2024-05-09T03:51:39.271Z,40.35
2024-05-09T03:52:10.822Z,40.61
2024-05-09T03:52:45.092Z,40.15
2024-05-09T03:53:16.795Z,40.43
2024-05-09T03:53:48.457Z,40.56
2024-05-09T03:54:20.049Z,40.12
2024-05-09T03:54:51.595Z,40.53
2024-05-09T03:55:23.310Z,40.23
2024-05-09T03:55:54.929Z,40.17
2024-05-09T03:56:26.708Z,40.10
2024-05-09T03:56:58.313Z,40.22
2024-05-09T03:57:29.929Z,40.48
2024-05-09T03:58:01.480Z,40.20
2024-05-09T03:58:35.779Z,40.45
2024-05-09T03:59:07.370Z,40.40
2024-05-09T03:59:39.120Z,40.35
2024-05-09T04:00:17.663Z,40.50
2024-05-09T04:00:54.442Z,40.30
2024-05-09T04:01:26.029Z,40.36
2024-05-09T04:01:57.755Z,40.27
2024-05-09T04:02:29.529Z,40.35
2024-05-09T04:03:01.552Z,40.36
2024-05-09T04:03:33.580Z,40.11
2024-05-09T04:04:05.330Z,40.16
2024-05-09T04:04:37.047Z,40.42
2024-05-09T04:05:08.789Z,40.09
2024-05-09T04:05:41.594Z,40.48
2024-05-09T04:06:14.176Z,40.38
2024-05-09T04:06:45.782Z,40.33
2024-05-09T04:07:17.531Z,40.50
2024-05-09T04:07:49.113Z,40.37
2024-05-09T04:08:20.814Z,40.48
2024-05-09T04:08:52.467Z,40.38
2024-05-09T04:09:24.073Z,40.22
2024-05-09T04:09:55.692Z,40.24
2024-05-09T04:10:32.542Z,40.25
2024-05-09T04:11:05.945Z,40.12
2024-05-09T04:11:37.782Z,40.27
2024-05-09T04:12:09.654Z,40.27
2024-05-09T04:12:41.332Z,40.57
2024-05-09T04:13:12.961Z,40.42
2024-05-09T04:13:44.651Z,40.48
2024-05-09T04:14:16.260Z,40.31
2024-05-09T04:14:47.911Z,40.37
2024-05-09T04:15:19.488Z,40.19
2024-05-09T04:15:51.105Z,40.56
2024-05-09T04:16:22.709Z,40.03
2024-05-09T04:16:54.321Z,40.45
2024-05-09T04:17:26.149Z,40.36
2024-05-09T04:17:58.116Z,40.17
2024-05-09T04:18:30.015Z,40.28
2024-05-09T04:19:01.731Z,40.24
2024-05-09T04:19:33.496Z,40.17
2024-05-09T04:20:06.519Z,40.15
2024-05-09T04:20:41.230Z,40.02
2024-05-09T04:21:13.202Z,40.23
2024-05-09T04:21:44.822Z,40.55
2024-05-09T04:22:16.356Z,40.08
2024-05-09T04:22:48.074Z,40.40
2024-05-09T04:23:19.692Z,40.22
2024-05-09T04:23:51.402Z,40.28
2024-05-09T04:24:22.989Z,40.33
2024-05-09T04:24:54.580Z,40.54
2024-05-09T04:25:26.237Z,40.21
2024-05-09T04:25:57.855Z,40.05
2024-05-09T04:26:29.569Z,40.39
2024-05-09T04:27:01.346Z,40.46
2024-05-09T04:27:33.017Z,40.27
2024-05-09T04:28:04.560Z,40.13
2024-05-09T04:28:36.104Z,40.21
2024-05-09T04:29:07.684Z,40.33
2024-05-09T04:29:39.351Z,40.36
2024-05-09T04:30:18.441Z,40.02
2024-05-09T04:30:53.364Z,40.45
2024-05-09T04:31:24.952Z,40.06
2024-05-09T04:31:56.857Z,40.38
2024-05-09T04:32:28.837Z,40.28
2024-05-09T04:33:00.601Z,40.21
2024-05-09T04:33:32.588Z,40.18
2024-05-09T04:34:04.588Z,40.16
2024-05-09T04:34:36.344Z,40.37
2024-05-09T04:35:08.010Z,40.04
2024-05-09T04:35:40.006Z,40.31
2024-05-09T04:36:11.638Z,40.33
2024-05-09T04:36:44.615Z,40.30
2024-05-09T04:37:16.393Z,40.50
2024-05-09T04:37:48.016Z,40.25
2024-05-09T04:38:19.696Z,40.40
2024-05-09T04:38:51.462Z,40.19
2024-05-09T04:39:23.141Z,40.28
2024-05-09T04:39:54.718Z,40.44
2024-05-09T04:40:33.063Z,40.33
2024-05-09T04:41:09.765Z,40.45
2024-05-09T04:41:41.354Z,40.46
2024-05-09T04:42:12.977Z,40.51
2024-05-09T04:42:44.580Z,40.04
2024-05-09T04:43:16.248Z,40.26
2024-05-09T04:43:47.910Z,40.13
2024-05-09T04:44:21.520Z,40.27
2024-05-09T04:44:55.585Z,40.37
2024-05-09T04:45:29.041Z,40.27
2024-05-09T04:46:00.631Z,40.40
2024-05-09T04:46:32.338Z,40.28
2024-05-09T04:47:03.917Z,40.14
2024-05-09T04:47:35.725Z,40.28
2024-05-09T04:48:07.578Z,40.20
2024-05-09T04:48:39.261Z,40.31
2024-05-09T04:49:11.012Z,40.27
2024-05-09T04:49:42.808Z,40.13
2024-05-09T04:50:20.856Z,40.30
2024-05-09T04:50:57.207Z,40.08
2024-05-09T04:51:28.842Z,40.46
2024-05-09T04:52:00.492Z,40.10
2024-05-09T04:52:32.036Z,40.30
2024-05-09T04:53:03.854Z,40.43
2024-05-09T04:53:35.562Z,40.04
2024-05-09T04:54:10.562Z,40.46
2024-05-09T04:54:42.287Z,40.08
2024-05-09T04:55:13.833Z,40.08
2024-05-09T04:55:45.509Z,40.39
2024-05-09T04:56:17.210Z,40.46
2024-05-09T04:56:48.827Z,40.47
2024-05-09T04:57:20.391Z,40.27
2024-05-09T04:57:51.954Z,40.45
2024-05-09T04:58:23.540Z,39.94
2024-05-09T04:58:55.151Z,40.22
2024-05-09T04:59:26.938Z,40.09
2024-05-09T04:59:58.633Z,40.40
2024-05-09T05:00:36.023Z,40.13
2024-05-09T05:01:09.537Z,40.00
2024-05-09T05:01:41.148Z,40.33
2024-05-09T05:02:12.910Z,40.47
2024-05-09T05:02:44.680Z,40.47
2024-05-09T05:03:16.933Z,40.20
2024-05-09T05:03:49.258Z,40.07
2024-05-09T05:04:21.066Z,40.47
2024-05-09T05:04:52.762Z,40.06
2024-05-09T05:05:24.556Z,40.10
2024-05-09T05:05:56.331Z,40.04
2024-05-09T05:06:28.004Z,40.07
2024-05-09T05:07:02.680Z,40.43
2024-05-09T05:07:34.590Z,40.03
2024-05-09T05:08:06.234Z,39.99
2024-05-09T05:08:37.947Z,40.30
2024-05-09T05:09:09.658Z,40.28
2024-05-09T05:09:41.211Z,40.52
2024-05-09T05:10:17.921Z,40.45
2024-05-09T05:10:56.867Z,40.34
2024-05-09T05:11:28.714Z,40.20
2024-05-09T05:12:00.786Z,40.36
2024-05-09T05:12:32.558Z,40.18
2024-05-09T05:13:04.196Z,40.32
2024-05-09T05:13:37.889Z,40.15
2024-05-09T05:14:11.001Z,40.13
2024-05-09T05:14:42.580Z,40.19
2024-05-09T05:15:14.187Z,40.45
2024-05-09T05:15:47.090Z,40.26
2024-05-09T05:16:18.697Z,40.11
2024-05-09T05:16:50.454Z,40.46
2024-05-09T05:17:22.160Z,40.26
2024-05-09T05:17:53.977Z,40.05
2024-05-09T05:18:25.989Z,40.23
2024-05-09T05:18:57.747Z,40.18
2024-05-09T05:19:29.499Z,40.47
2024-05-09T05:20:01.405Z,40.13
2024-05-09T05:20:34.141Z,40.50
2024-05-09T05:21:06.126Z,40.13
2024-05-09T05:21:37.712Z,40.53
2024-05-09T05:22:09.299Z,40.55
2024-05-09T05:22:40.876Z,40.26
2024-05-09T05:23:12.660Z,40.38
2024-05-09T05:23:44.692Z,40.12
2024-05-09T05:24:16.340Z,40.04
2024-05-09T05:24:47.894Z,40.47
2024-05-09T05:25:19.533Z,40.15
2024-05-09T05:25:51.220Z,40.20
2024-05-09T05:26:22.940Z,40.31
2024-05-09T05:26:54.570Z,40.20
2024-05-09T05:27:26.145Z,40.25
2024-05-09T05:27:57.730Z,40.37
2024-05-09T05:28:29.372Z,40.04
2024-05-09T05:29:01.021Z,40.45
2024-05-09T05:29:32.659Z,40.47
2024-05-09T05:30:07.348Z,40.61
2024-05-09T05:30:41.020Z,40.58
2024-05-09T05:31:12.670Z,40.13
2024-05-09T05:31:44.384Z,40.42
2024-05-09T05:32:16.230Z,40.46
2024-05-09T05:32:48.104Z,40.43
2024-05-09T05:33:20.262Z,40.26
2024-05-09T05:33:52.247Z,40.28
2024-05-09T05:34:23.865Z,40.52
2024-05-09T05:34:55.478Z,40.34
2024-05-09T05:35:27.280Z,40.49
2024-05-09T05:35:59.055Z,40.41
2024-05-09T05:36:30.649Z,40.42
2024-05-09T05:37:02.234Z,40.55
2024-05-09T05:37:33.853Z,40.50
2024-05-09T05:38:05.471Z,40.66
2024-05-09T05:38:37.224Z,40.17
2024-05-09T05:39:08.853Z,40.18
2024-05-09T05:39:40.396Z,40.59
2024-05-09T05:40:17.442Z,40.16
2024-05-09T05:40:52.590Z,40.48
2024-05-09T05:41:24.253Z,40.31
2024-05-09T05:41:55.902Z,40.35
2024-05-09T05:42:29.185Z,40.14
2024-05-09T05:43:00.758Z,40.45
2024-05-09T05:43:32.394Z,40.35
2024-05-09T05:44:04.033Z,40.25
2024-05-09T05:44:35.756Z,40.46
2024-05-09T05:45:09.653Z,40.57
2024-05-09T05:45:41.491Z,40.42
2024-05-09T05:46:13.089Z,40.33
2024-05-09T05:46:44.730Z,40.34
2024-05-09T05:47:16.521Z,40.68
2024-05-09T05:47:48.428Z,40.36
2024-05-09T05:48:20.310Z,40.25
2024-05-09T05:48:52.072Z,40.41
2024-05-09T05:49:23.997Z,40.31
2024-05-09T05:49:55.663Z,40.56
2024-05-09T05:50:32.985Z,40.22
2024-05-09T05:51:08.033Z,40.33
2024-05-09T05:51:39.703Z,40.67
2024-05-09T05:52:11.374Z,40.52
2024-05-09T05:52:42.936Z,40.62
2024-05-09T05:53:14.709Z,40.44
2024-05-09T05:53:46.482Z,40.73
2024-05-09T05:54:18.190Z,40.36
2024-05-09T05:54:49.783Z,40.29
2024-05-09T05:55:21.364Z,40.42
2024-05-09T05:55:53.020Z,40.54
2024-05-09T05:56:24.686Z,40.66
2024-05-09T05:56:56.295Z,40.38
2024-05-09T05:57:28.025Z,40.40
2024-05-09T05:57:59.567Z,40.48
2024-05-09T05:58:31.115Z,40.41
2024-05-09T05:59:02.727Z,40.52
2024-05-09T05:59:34.465Z,40.70
2024-05-09T06:00:09.267Z,40.65
2024-05-09T06:00:42.133Z,40.51
2024-05-09T06:01:14.358Z,40.69
2024-05-09T06:01:46.006Z,40.72
2024-05-09T06:02:17.705Z,40.45
2024-05-09T06:02:49.541Z,40.50
2024-05-09T06:03:21.273Z,40.28
2024-05-09T06:03:52.962Z,40.81
2024-05-09T06:04:24.668Z,40.58
2024-05-09T06:04:56.431Z,40.62
2024-05-09T06:05:28.113Z,40.53
2024-05-09T06:05:59.920Z,40.59
2024-05-09T06:06:31.615Z,40.55
2024-05-09T06:07:03.191Z,40.69
2024-05-09T06:07:34.738Z,40.48
2024-05-09T06:08:06.358Z,40.79
2024-05-09T06:08:37.975Z,40.79
2024-05-09T06:09:09.634Z,40.84
2024-05-09T06:09:41.286Z,40.50
2024-05-09T06:10:17.651Z,40.35
2024-05-09T06:10:53.544Z,40.39
2024-05-09T06:11:25.297Z,40.49
2024-05-09T06:11:57.101Z,40.78
2024-05-09T06:12:28.805Z,40.58
2024-05-09T06:13:00.448Z,40.41
2024-05-09T06:13:31.996Z,40.30
2024-05-09T06:14:03.658Z,40.58
2024-05-09T06:14:35.344Z,40.75
2024-05-09T06:15:07.012Z,40.58
2024-05-09T06:15:38.565Z,40.71
2024-05-09T06:16:10.195Z,40.69
2024-05-09T06:16:41.783Z,40.74
2024-05-09T06:17:13.547Z,40.54
2024-05-09T06:17:45.283Z,40.85
2024-05-09T06:18:17.235Z,40.62
2024-05-09T06:18:49.318Z,40.90
2024-05-09T06:19:21.347Z,40.87
2024-05-09T06:19:53.340Z,40.91
2024-05-09T06:20:34.561Z,40.68
2024-05-09T06:21:08.868Z,40.65
2024-05-09T06:21:40.512Z,40.83
2024-05-09T06:22:12.129Z,40.72
2024-05-09T06:22:43.713Z,40.60
2024-05-09T06:23:15.335Z,40.80
2024-05-09T06:23:47.032Z,40.92
2024-05-09T06:24:18.822Z,40.97
2024-05-09T06:24:50.432Z,41.04
2024-05-09T06:25:21.988Z,40.77
2024-05-09T06:25:56.730Z,40.77
2024-05-09T06:26:28.485Z,40.67
2024-05-09T06:27:00.072Z,40.88
2024-05-09T06:27:31.670Z,40.72
2024-05-09T06:28:03.506Z,40.74
2024-05-09T06:28:35.162Z,40.73
2024-05-09T06:29:06.790Z,40.76
2024-05-09T06:29:38.447Z,40.61
2024-05-09T06:30:17.416Z,40.70
2024-05-09T06:30:57.007Z,41.02
2024-05-09T06:31:28.596Z,40.76
2024-05-09T06:32:00.529Z,41.00
2024-05-09T06:32:32.372Z,40.66
2024-05-09T06:33:04.538Z,40.99
2024-05-09T06:33:36.662Z,41.02
2024-05-09T06:34:08.582Z,40.76
2024-05-09T06:34:40.295Z,41.03
2024-05-09T06:35:11.913Z,40.89
2024-05-09T06:35:43.782Z,40.83
2024-05-09T06:36:15.479Z,41.08
2024-05-09T06:36:47.083Z,41.04
2024-05-09T06:37:18.702Z,40.90
2024-05-09T06:37:50.519Z,40.84
2024-05-09T06:38:24.177Z,40.83
2024-05-09T06:38:55.911Z,40.87
2024-05-09T06:39:27.468Z,41.08
2024-05-09T06:39:59.013Z,40.96
2024-05-09T06:40:37.159Z,40.92
2024-05-09T06:41:10.934Z,40.82
2024-05-09T06:41:42.663Z,41.14
2024-05-09T06:42:14.318Z,41.05
2024-05-09T06:42:45.860Z,40.72
2024-05-09T06:43:19.190Z,40.87
2024-05-09T06:43:51.454Z,40.70
2024-05-09T06:44:23.072Z,40.79
2024-05-09T06:44:54.655Z,40.97
2024-05-09T06:45:26.242Z,41.08
2024-05-09T06:45:57.876Z,41.04
2024-05-09T06:46:29.418Z,41.21
2024-05-09T06:47:01.062Z,41.04
2024-05-09T06:47:32.916Z,40.89
2024-05-09T06:48:04.920Z,40.96
2024-05-09T06:48:36.759Z,41.07
2024-05-09T06:49:08.669Z,40.95
2024-05-09T06:49:40.407Z,40.75
2024-05-09T06:50:20.241Z,40.90
2024-05-09T06:50:55.658Z,40.83
2024-05-09T06:51:27.258Z,40.87
2024-05-09T06:51:58.924Z,41.15
2024-05-09T06:52:30.519Z,41.05
2024-05-09T06:53:02.324Z,41.04
2024-05-09T06:53:34.310Z,41.10
2024-05-09T06:54:09.157Z,41.21
2024-05-09T06:54:40.708Z,41.18
2024-05-09T06:55:12.285Z,41.26
2024-05-09T06:55:43.956Z,40.84
2024-05-09T06:56:15.609Z,40.84